Sky Ever — DSQX9 — position and weather

sailwx.info

Track history (hours):
 
Tides and Currents Weather Stations Pressure Air Temp Water Temp Dewpoint Dewpoint Depression Visibility Wind Speed Wind Dir Waves Ship Positions

Sky Ever

Last reported at 2014-Aug-26 11:28 UTC. Time now 2014-Aug-31 04:32 UTC.
Position N 34°35' E 134°52'.

Length 76 m; draft 3.6 m.

Type: Cargo ship. MMSI: 441751000.

Date/timePositionNaut miles runAvg speedWind from/ knotsBaromVisibWave heightAir tempDewpointWater temp
2014-Aug-26 11:28N 34°35' E 134°52'1111.9
2014-Aug-26 10:33N 34°36' E 135°06'10 9.7
2014-Aug-26 09:33N 34°36' E 135°17'8 6.8
2014-Aug-26 08:25N 34°40' E 135°25'0 0.1
2014-Aug-26 07:31N 34°40' E 135°25'0 0.0
2014-Aug-26 06:31N 34°40' E 135°25'0 0.0
2014-Aug-26 05:31N 34°40' E 135°25'0 0.0
2014-Aug-26 04:25N 34°40' E 135°25'3 3.8
2014-Aug-26 03:33N 34°38' E 135°23'0 0.3
2014-Aug-26 02:24N 34°37' E 135°23'0 0.0
2014-Aug-26 00:24N 34°37' E 135°23'0 0.0
2014-Aug-25 23:12N 34°37' E 135°23'0 0.0
2014-Aug-25 22:24N 34°38' E 135°23'0 0.0
2014-Aug-25 21:30N 34°38' E 135°23'0 0.1
2014-Aug-25 20:30N 34°37' E 135°23'0 0.0
2014-Aug-25 19:24N 34°37' E 135°23'0 0.0
2014-Aug-25 18:18N 34°37' E 135°23'0 0.0
2014-Aug-25 17:24N 34°37' E 135°23'0 0.0
2014-Aug-25 16:30N 34°37' E 135°23'0 0.0
2014-Aug-25 15:30N 34°37' E 135°23'0 0.0
2014-Aug-25 14:30N 34°37' E 135°23'0 0.0
2014-Aug-25 13:30N 34°37' E 135°23'0 0.1
2014-Aug-25 12:30N 34°37' E 135°23'0 0.0
2014-Aug-25 11:24N 34°37' E 135°23'0 0.0
2014-Aug-25 10:30N 34°37' E 135°23'0 0.0
2014-Aug-25 09:18N 34°37' E 135°23'0 0.0
2014-Aug-25 08:24N 34°37' E 135°23'3 3.9
2014-Aug-25 07:31N 34°34' E 135°22'4 3.6
2014-Aug-25 06:30N 34°31' E 135°24'0 0.0
2014-Aug-25 05:30N 34°31' E 135°24'0 0.0
2014-Aug-25 03:12N 34°31' E 135°24'0 0.0
2014-Aug-25 01:30N 34°31' E 135°24'0 0.0
2014-Aug-25 00:24N 34°31' E 135°24'0 0.0
2014-Aug-24 23:30N 34°31' E 135°24'0 0.0
2014-Aug-24 22:30N 34°31' E 135°24'3 1.3
2014-Aug-24 20:33N 34°32' E 135°21'0 0.0
2014-Aug-24 17:33N 34°32' E 135°21'0 0.0
2014-Aug-24 16:21N 34°32' E 135°21'0 0.0
2014-Aug-24 15:33N 34°32' E 135°21'0 0.0
2014-Aug-24 11:21N 34°32' E 135°21'0 0.0
2014-Aug-24 10:09N 34°32' E 135°21'0 0.0
2014-Aug-24 09:33N 34°32' E 135°21'0 0.0
2014-Aug-24 07:23N 34°32' E 135°21'0 0.0
2014-Aug-24 06:32N 34°32' E 135°21'0 0.0
2014-Aug-24 05:32N 34°32' E 135°21'0 0.0
2014-Aug-24 04:26N 34°32' E 135°21'0 0.0
2014-Aug-24 03:32N 34°32' E 135°21'0 0.0
2014-Aug-24 01:32N 34°32' E 135°21'0 0.0
2014-Aug-23 23:08N 34°32' E 135°21'0 0.0
2014-Aug-23 22:26N 34°32' E 135°21'0 0.0
2014-Aug-23 21:32N 34°32' E 135°21'0 0.0
2014-Aug-23 19:32N 34°32' E 135°21'0 0.0
2014-Aug-23 03:31N 34°32' E 135°21'0 0.0
2014-Aug-23 02:31N 34°32' E 135°21'0 0.0
2014-Aug-23 01:31N 34°32' E 135°21'0 0.0
2014-Aug-23 00:31N 34°32' E 135°21'0 0.0
2014-Aug-22 23:19N 34°32' E 135°21'0 0.0
2014-Aug-22 22:31N 34°32' E 135°21'0 0.1
2014-Aug-22 21:31N 34°32' E 135°21'0 0.1
2014-Aug-22 20:31N 34°32' E 135°21'0 0.0
2014-Aug-22 17:07N 34°32' E 135°21'3 4.7
2014-Aug-22 16:33N 34°33' E 135°18'9 9.1
2014-Aug-22 15:33N 34°35' E 135°07'125 7.7
2014-Aug-21 23:27N 33°58' E 132°43'  
Track history (hours):
 
Tides and Currents Weather Stations Pressure Air Temp Water Temp Dewpoint Dewpoint Depression Visibility Wind Speed Wind Dir Waves Ship Positions

Sky Ever

Last reported at 2014-Aug-26 11:28 UTC. Time now 2014-Aug-31 04:32 UTC.
Position N 34°35' E 134°52'.

Length 76 m; draft 3.6 m.

Type: Cargo ship. MMSI: 441751000.

Date/timePositionNaut miles runAvg speedWind from/ knotsBaromVisibWave heightAir tempDewpointWater temp
2014-Aug-26 11:28N 34°35' E 134°52'1111.9
2014-Aug-26 10:33N 34°36' E 135°06'10 9.7
2014-Aug-26 09:33N 34°36' E 135°17'8 6.8
2014-Aug-26 08:25N 34°40' E 135°25'0 0.1
2014-Aug-26 07:31N 34°40' E 135°25'0 0.0
2014-Aug-26 06:31N 34°40' E 135°25'0 0.0
2014-Aug-26 05:31N 34°40' E 135°25'0 0.0
2014-Aug-26 04:25N 34°40' E 135°25'3 3.8
2014-Aug-26 03:33N 34°38' E 135°23'0 0.3
2014-Aug-26 02:24N 34°37' E 135°23'0 0.0
2014-Aug-26 00:24N 34°37' E 135°23'0 0.0
2014-Aug-25 23:12N 34°37' E 135°23'0 0.0
2014-Aug-25 22:24N 34°38' E 135°23'0 0.0
2014-Aug-25 21:30N 34°38' E 135°23'0 0.1
2014-Aug-25 20:30N 34°37' E 135°23'0 0.0
2014-Aug-25 19:24N 34°37' E 135°23'0 0.0
2014-Aug-25 18:18N 34°37' E 135°23'0 0.0
2014-Aug-25 17:24N 34°37' E 135°23'0 0.0
2014-Aug-25 16:30N 34°37' E 135°23'0 0.0
2014-Aug-25 15:30N 34°37' E 135°23'0 0.0
2014-Aug-25 14:30N 34°37' E 135°23'0 0.0
2014-Aug-25 13:30N 34°37' E 135°23'0 0.1
2014-Aug-25 12:30N 34°37' E 135°23'0 0.0
2014-Aug-25 11:24N 34°37' E 135°23'0 0.0
2014-Aug-25 10:30N 34°37' E 135°23'0 0.0
2014-Aug-25 09:18N 34°37' E 135°23'0 0.0
2014-Aug-25 08:24N 34°37' E 135°23'3 3.9
2014-Aug-25 07:31N 34°34' E 135°22'4 3.6
2014-Aug-25 06:30N 34°31' E 135°24'0 0.0
2014-Aug-25 05:30N 34°31' E 135°24'0 0.0
2014-Aug-25 03:12N 34°31' E 135°24'0 0.0
2014-Aug-25 01:30N 34°31' E 135°24'0 0.0
2014-Aug-25 00:24N 34°31' E 135°24'0 0.0
2014-Aug-24 23:30N 34°31' E 135°24'0 0.0
2014-Aug-24 22:30N 34°31' E 135°24'3 1.3
2014-Aug-24 20:33N 34°32' E 135°21'0 0.0
2014-Aug-24 17:33N 34°32' E 135°21'0 0.0
2014-Aug-24 16:21N 34°32' E 135°21'0 0.0
2014-Aug-24 15:33N 34°32' E 135°21'0 0.0
2014-Aug-24 11:21N 34°32' E 135°21'0 0.0
2014-Aug-24 10:09N 34°32' E 135°21'0 0.0
2014-Aug-24 09:33N 34°32' E 135°21'0 0.0
2014-Aug-24 07:23N 34°32' E 135°21'0 0.0
2014-Aug-24 06:32N 34°32' E 135°21'0 0.0
2014-Aug-24 05:32N 34°32' E 135°21'0 0.0
2014-Aug-24 04:26N 34°32' E 135°21'0 0.0
2014-Aug-24 03:32N 34°32' E 135°21'0 0.0
2014-Aug-24 01:32N 34°32' E 135°21'0 0.0
2014-Aug-23 23:08N 34°32' E 135°21'0 0.0
2014-Aug-23 22:26N 34°32' E 135°21'0 0.0
2014-Aug-23 21:32N 34°32' E 135°21'0 0.0
2014-Aug-23 19:32N 34°32' E 135°21'0 0.0
2014-Aug-23 03:31N 34°32' E 135°21'0 0.0
2014-Aug-23 02:31N 34°32' E 135°21'0 0.0
2014-Aug-23 01:31N 34°32' E 135°21'0 0.0
2014-Aug-23 00:31N 34°32' E 135°21'0 0.0
2014-Aug-22 23:19N 34°32' E 135°21'0 0.0
2014-Aug-22 22:31N 34°32' E 135°21'0 0.1
2014-Aug-22 21:31N 34°32' E 135°21'0 0.1
2014-Aug-22 20:31N 34°32' E 135°21'0 0.0
2014-Aug-22 17:07N 34°32' E 135°21'3 4.7
2014-Aug-22 16:33N 34°33' E 135°18'9 9.1
2014-Aug-22 15:33N 34°35' E 135°07'125 7.7
2014-Aug-21 23:27N 33°58' E 132°43'  

Dump ship's entire track history